createdAt,value
2022-12-01T00:01:12.068Z,6.64
2022-12-01T00:03:39.046Z,6.77
2022-12-01T00:06:13.924Z,6.75
2022-12-01T00:08:40.384Z,6.78
2022-12-01T00:11:11.602Z,6.59
2022-12-01T00:13:38.515Z,6.47
2022-12-01T00:16:16.650Z,6.13
2022-12-01T00:18:43.930Z,6.14
2022-12-01T00:21:15.319Z,6.45
2022-12-01T00:23:51.272Z,6.34
2022-12-01T00:26:19.934Z,6.38
2022-12-01T00:28:55.272Z,6.44
2022-12-01T00:31:22.242Z,6.31
2022-12-01T00:33:48.792Z,6.40
2022-12-01T00:36:15.297Z,6.29
2022-12-01T00:38:41.762Z,6.37
2022-12-01T00:41:08.589Z,6.12
2022-12-01T00:43:35.295Z,6.60
2022-12-01T00:46:01.858Z,6.55
2022-12-01T00:48:28.374Z,6.36
2022-12-01T00:50:55.780Z,6.52
2022-12-01T00:53:23.388Z,6.65
2022-12-01T00:55:49.995Z,6.12
2022-12-01T00:58:16.493Z,6.43
2022-12-01T01:00:43.057Z,6.50
2022-12-01T01:03:11.143Z,6.71
2022-12-01T01:05:39.847Z,6.70
2022-12-01T01:08:11.288Z,6.57
2022-12-01T01:10:42.483Z,6.69
2022-12-01T01:13:10.010Z,6.82
2022-12-01T01:15:36.572Z,6.86
2022-12-01T01:18:03.248Z,6.72
2022-12-01T01:20:29.713Z,6.78
2022-12-01T01:22:56.202Z,6.74
2022-12-01T01:25:22.768Z,6.13
2022-12-01T01:27:51.315Z,6.99
2022-12-01T01:30:18.516Z,6.71
2022-12-01T01:32:44.968Z,6.57
2022-12-01T01:35:11.473Z,6.72
2022-12-01T01:37:37.944Z,6.85
2022-12-01T01:40:05.093Z,6.53
2022-12-01T01:42:31.564Z,6.68
2022-12-01T01:44:58.847Z,6.78
2022-12-01T01:47:39.557Z,6.54
2022-12-01T01:50:14.052Z,6.80
2022-12-01T01:52:45.030Z,6.63
2022-12-01T01:55:13.416Z,6.79
2022-12-01T01:57:41.856Z,7.11
2022-12-01T02:00:12.834Z,6.78
2022-12-01T02:02:44.758Z,6.68
2022-12-01T02:05:26.579Z,6.60
2022-12-01T02:07:56.771Z,6.91
2022-12-01T02:10:46.609Z,6.56
2022-12-01T02:13:32.124Z,6.50
2022-12-01T02:16:16.439Z,6.65
2022-12-01T02:19:03.740Z,6.35
2022-12-01T02:21:47.955Z,6.30
2022-12-01T02:24:31.185Z,6.21
2022-12-01T02:27:29.451Z,6.31
2022-12-01T02:30:05.016Z,6.51
2022-12-01T02:32:50.303Z,6.54
2022-12-01T02:35:22.912Z,6.78
2022-12-01T02:38:07.057Z,6.87
2022-12-01T02:40:51.372Z,7.02
2022-12-01T02:43:25.890Z,7.28
2022-12-01T02:46:02.695Z,7.42
2022-12-01T02:48:35.345Z,7.10
2022-12-01T02:51:12.086Z,6.65
2022-12-01T02:53:38.651Z,6.61
2022-12-01T02:56:10.417Z,6.71
2022-12-01T02:58:36.909Z,6.76
2022-12-01T03:01:24.682Z,6.68
2022-12-01T03:04:16.188Z,6.34
2022-12-01T03:07:00.872Z,6.37
2022-12-01T03:09:33.293Z,6.31
2022-12-01T03:12:15.838Z,6.60
2022-12-01T03:14:45.414Z,6.18
2022-12-01T03:17:20.496Z,6.37
2022-12-01T03:19:59.740Z,6.38
2022-12-01T03:22:36.826Z,6.51
2022-12-01T03:25:05.361Z,6.77
2022-12-01T03:27:44.056Z,6.86
2022-12-01T03:30:17.916Z,6.89
2022-12-01T03:32:52.008Z,6.89
2022-12-01T03:35:25.834Z,6.47
2022-12-01T03:38:21.574Z,6.51
2022-12-01T03:40:52.823Z,6.81
2022-12-01T03:43:26.285Z,6.70
2022-12-01T03:45:56.794Z,7.04
2022-12-01T03:48:24.979Z,6.95
2022-12-01T03:51:31.934Z,6.85
2022-12-01T03:54:19.354Z,6.65
2022-12-01T03:56:55.250Z,6.50
2022-12-01T03:59:25.442Z,6.71
2022-12-01T04:01:51.963Z,6.80
2022-12-01T04:04:18.816Z,6.45
2022-12-01T04:06:49.077Z,6.49
2022-12-01T04:09:16.447Z,6.82
2022-12-01T04:11:42.915Z,7.05
2022-12-01T04:14:29.092Z,6.91
2022-12-01T04:16:55.654Z,6.59
2022-12-01T04:19:22.114Z,6.55
2022-12-01T04:21:48.707Z,6.64
2022-12-01T04:24:15.455Z,6.91
2022-12-01T04:26:41.928Z,7.26
2022-12-01T04:29:10.564Z,7.17
2022-12-01T04:31:37.059Z,7.21
2022-12-01T04:34:04.214Z,7.16
2022-12-01T04:36:33.253Z,7.32
2022-12-01T04:39:00.672Z,7.32
2022-12-01T04:41:27.405Z,7.44
2022-12-01T04:43:54.988Z,7.60
2022-12-01T04:46:22.986Z,7.52
2022-12-01T04:48:50.237Z,7.29
2022-12-01T04:51:17.231Z,7.01
2022-12-01T04:53:43.734Z,7.28
2022-12-01T04:56:10.218Z,6.95
2022-12-01T04:58:37.438Z,7.28
2022-12-01T05:01:12.497Z,6.71
2022-12-01T05:03:41.452Z,6.98
2022-12-01T05:06:14.009Z,6.82
2022-12-01T05:08:41.482Z,6.73
2022-12-01T05:11:09.952Z,6.69
2022-12-01T05:13:37.990Z,6.75
2022-12-01T05:16:10.209Z,6.70
2022-12-01T05:18:36.843Z,6.93
2022-12-01T05:21:05.669Z,6.88
2022-12-01T05:23:35.671Z,7.07
2022-12-01T05:26:04.447Z,6.81
2022-12-01T05:28:31.200Z,6.78
2022-12-01T05:30:57.917Z,6.87
2022-12-01T05:33:26.448Z,6.85
2022-12-01T05:35:53.580Z,6.95
2022-12-01T05:38:20.601Z,7.31
2022-12-01T05:40:55.447Z,7.12
2022-12-01T05:43:28.529Z,7.39
2022-12-01T05:45:57.463Z,7.42
2022-12-01T05:48:25.022Z,7.28
2022-12-01T05:50:51.685Z,7.08
2022-12-01T05:53:19.279Z,7.31
2022-12-01T05:55:45.815Z,7.18
2022-12-01T05:58:12.603Z,7.26
2022-12-01T06:00:45.318Z,7.28
2022-12-01T06:03:13.123Z,6.85
2022-12-01T06:05:39.874Z,6.85
2022-12-01T06:08:06.399Z,6.65
2022-12-01T06:10:33.074Z,6.64
2022-12-01T06:12:59.654Z,6.63
2022-12-01T06:15:26.782Z,6.47
2022-12-01T06:17:53.252Z,6.57
2022-12-01T06:20:19.733Z,6.65
2022-12-01T06:22:48.083Z,6.66
2022-12-01T06:25:14.615Z,6.91
2022-12-01T06:27:41.098Z,6.41
2022-12-01T06:30:08.380Z,6.32
2022-12-01T06:32:35.223Z,5.95
2022-12-01T06:35:02.044Z,5.88
2022-12-01T06:37:28.524Z,6.20
2022-12-01T06:39:55.000Z,6.33
2022-12-01T06:42:21.547Z,6.39
2022-12-01T06:44:48.048Z,6.50
2022-12-01T06:47:14.549Z,6.54
2022-12-01T06:49:41.323Z,6.72
2022-12-01T06:52:07.799Z,6.34
2022-12-01T06:54:34.248Z,6.28
2022-12-01T06:57:00.711Z,6.51
2022-12-01T06:59:27.510Z,6.55
2022-12-01T07:01:54.422Z,6.24
2022-12-01T07:04:20.931Z,6.70
2022-12-01T07:06:47.435Z,6.66
2022-12-01T07:09:13.920Z,6.40
2022-12-01T07:11:40.380Z,6.63
2022-12-01T07:14:11.675Z,6.67
2022-12-01T07:16:38.266Z,6.86
2022-12-01T07:19:04.757Z,6.61
2022-12-01T07:21:31.217Z,6.78
2022-12-01T07:23:57.671Z,6.53
2022-12-01T07:26:24.117Z,6.30
2022-12-01T07:28:50.568Z,6.43
2022-12-01T07:31:19.064Z,6.69
2022-12-01T07:33:45.948Z,6.55
2022-12-01T07:36:13.433Z,6.45
2022-12-01T07:38:40.727Z,6.53
2022-12-01T07:41:16.808Z,6.64
2022-12-01T07:43:43.431Z,6.83
2022-12-01T07:46:18.734Z,7.14
2022-12-01T07:48:48.689Z,7.09
2022-12-01T07:51:16.821Z,7.31
2022-12-01T07:53:47.391Z,6.94
2022-12-01T07:56:14.333Z,7.26
2022-12-01T07:58:41.385Z,7.08
2022-12-01T08:01:08.933Z,7.02
2022-12-01T08:03:36.078Z,7.26
2022-12-01T08:06:04.352Z,7.18
2022-12-01T08:08:33.224Z,6.91
2022-12-01T08:11:09.473Z,7.33
2022-12-01T08:13:35.963Z,7.45
2022-12-01T08:16:07.547Z,7.17
2022-12-01T08:18:36.115Z,7.47
2022-12-01T08:21:03.551Z,7.67
2022-12-01T08:23:30.643Z,7.40
2022-12-01T08:26:11.399Z,7.23
2022-12-01T08:28:40.585Z,7.11
2022-12-01T08:31:08.832Z,7.16
2022-12-01T08:33:35.559Z,7.40
2022-12-01T08:36:03.706Z,7.15
2022-12-01T08:38:30.309Z,7.09
2022-12-01T08:41:08.218Z,7.14
2022-12-01T08:43:56.548Z,6.85
2022-12-01T08:46:21.887Z,7.12
2022-12-01T08:48:48.377Z,7.15
2022-12-01T08:51:17.255Z,7.14
2022-12-01T08:53:47.362Z,7.17
2022-12-01T08:56:16.288Z,7.55
2022-12-01T08:58:43.094Z,7.70
2022-12-01T09:01:14.352Z,7.58
2022-12-01T09:03:42.247Z,7.90
2022-12-01T09:06:14.295Z,7.89
2022-12-01T09:08:41.689Z,8.19
2022-12-01T09:11:11.929Z,7.97
2022-12-01T09:13:40.352Z,8.11
2022-12-01T09:16:15.735Z,7.72
2022-12-01T09:18:43.927Z,7.95
2022-12-01T09:21:21.115Z,7.97
2022-12-01T09:23:48.330Z,8.04
2022-12-01T09:26:16.065Z,8.12
2022-12-01T09:28:42.563Z,8.11
2022-12-01T09:31:11.663Z,8.31
2022-12-01T09:33:38.880Z,8.39
2022-12-01T09:36:07.860Z,8.66
2022-12-01T09:38:36.002Z,8.61
2022-12-01T09:41:16.154Z,8.53
2022-12-01T09:44:11.326Z,8.01
2022-12-01T09:46:46.776Z,8.70
2022-12-01T09:49:27.937Z,8.62
2022-12-01T09:51:55.010Z,8.59
2022-12-01T09:54:21.617Z,8.25
2022-12-01T09:56:51.944Z,8.56
2022-12-01T09:59:36.350Z,8.47
2022-12-01T10:02:20.398Z,8.36
2022-12-01T10:04:50.488Z,8.59
2022-12-01T10:07:38.509Z,8.99
2022-12-01T10:10:16.565Z,8.65
2022-12-01T10:12:46.289Z,8.97
2022-12-01T10:15:12.706Z,8.82
2022-12-01T10:17:57.900Z,8.68
2022-12-01T10:20:48.308Z,8.17
2022-12-01T10:23:20.652Z,8.22
2022-12-01T10:25:58.908Z,8.41
2022-12-01T10:28:46.599Z,8.00
2022-12-01T10:31:16.095Z,7.89
2022-12-01T10:34:00.761Z,7.88
2022-12-01T10:36:30.200Z,7.74
2022-12-01T10:38:56.794Z,7.83
2022-12-01T10:41:28.188Z,8.03
2022-12-01T10:43:59.533Z,8.17
2022-12-01T10:46:29.298Z,7.98
2022-12-01T10:48:58.642Z,8.35
2022-12-01T10:51:27.392Z,8.36
2022-12-01T10:54:07.677Z,8.13
2022-12-01T10:56:40.585Z,8.10
2022-12-01T10:59:27.615Z,7.96
2022-12-01T11:01:55.933Z,7.85
2022-12-01T11:04:31.617Z,7.94
2022-12-01T11:06:58.472Z,8.55
2022-12-01T11:09:29.143Z,8.82
2022-12-01T11:12:02.335Z,9.01
2022-12-01T11:14:34.727Z,8.88
2022-12-01T11:17:30.517Z,9.04
2022-12-01T11:19:57.485Z,9.14
2022-12-01T11:22:30.391Z,9.45
2022-12-01T11:25:03.243Z,9.41
2022-12-01T11:27:34.729Z,9.51
2022-12-01T11:30:07.876Z,9.60
2022-12-01T11:32:39.249Z,9.46
2022-12-01T11:35:18.119Z,9.39
2022-12-01T11:40:48.884Z,9.68
2022-12-01T11:43:23.744Z,9.86
2022-12-01T11:45:51.522Z,9.60
2022-12-01T11:48:30.381Z,9.56
2022-12-01T11:51:02.140Z,10.04
2022-12-01T11:53:33.566Z,10.17
2022-12-01T11:56:26.405Z,10.32
2022-12-01T11:59:03.412Z,10.12
2022-12-01T12:01:47.256Z,10.03
2022-12-01T12:04:26.682Z,9.82
2022-12-01T12:07:13.309Z,9.36
2022-12-01T12:10:00.899Z,9.64
2022-12-01T12:12:43.931Z,9.11
2022-12-01T12:15:32.690Z,9.26
2022-12-01T12:18:23.988Z,8.69
2022-12-01T12:21:05.436Z,8.61
2022-12-01T12:23:34.520Z,8.49
2022-12-01T12:26:21.362Z,8.40
2022-12-01T12:29:25.560Z,8.15
2022-12-01T12:32:16.834Z,7.97
2022-12-01T12:35:26.175Z,7.97
2022-12-01T12:38:22.197Z,7.74
2022-12-01T12:41:32.362Z,7.81
2022-12-01T12:44:17.857Z,7.89
2022-12-01T12:47:02.342Z,7.93
2022-12-01T12:49:50.239Z,8.28
2022-12-01T12:52:30.990Z,8.07
2022-12-01T12:55:04.186Z,8.08
2022-12-01T12:57:38.607Z,7.88
2022-12-01T13:00:17.638Z,8.08
2022-12-01T13:02:46.243Z,7.73
2022-12-01T13:05:21.209Z,7.72
2022-12-01T13:07:59.267Z,8.16
2022-12-01T13:10:58.877Z,8.02
2022-12-01T13:13:50.332Z,8.07
2022-12-01T13:16:22.900Z,8.72
2022-12-01T13:19:02.879Z,8.65
2022-12-01T13:21:37.608Z,8.51
2022-12-01T13:24:06.720Z,8.39
2022-12-01T13:26:38.170Z,8.19
2022-12-01T13:29:07.794Z,8.23
2022-12-01T13:31:44.147Z,8.29
2022-12-01T13:34:25.458Z,8.37
2022-12-01T13:36:55.244Z,8.91
2022-12-01T13:39:29.126Z,8.90
2022-12-01T13:42:00.198Z,8.78
2022-12-01T13:44:41.668Z,8.79
2022-12-01T13:47:11.029Z,8.83
2022-12-01T13:49:52.231Z,9.12
2022-12-01T13:52:21.814Z,9.24
2022-12-01T13:55:09.720Z,9.67
2022-12-01T13:57:45.113Z,9.60
2022-12-01T14:00:33.628Z,9.27
2022-12-01T14:03:12.188Z,9.33
2022-12-01T14:05:56.328Z,9.50
2022-12-01T14:08:29.739Z,9.49
2022-12-01T14:11:22.598Z,9.55
2022-12-01T14:14:33.994Z,9.20
2022-12-01T14:17:02.821Z,8.95
2022-12-01T14:19:49.219Z,8.93
2022-12-01T14:22:33.679Z,9.06
2022-12-01T14:25:01.715Z,9.37
2022-12-01T14:27:40.860Z,9.29
2022-12-01T14:30:41.402Z,9.05
2022-12-01T14:33:38.737Z,8.56
2022-12-01T14:36:23.207Z,8.39
2022-12-01T14:39:01.379Z,8.18
2022-12-01T14:41:38.041Z,8.21
2022-12-01T14:44:33.071Z,7.98
2022-12-01T14:47:12.721Z,7.90
2022-12-01T14:50:06.539Z,7.95
2022-12-01T14:52:38.131Z,8.05
2022-12-01T14:55:13.919Z,8.03
2022-12-01T14:57:47.975Z,8.29
2022-12-01T15:00:23.229Z,8.49
2022-12-01T15:02:57.702Z,8.47
2022-12-01T15:05:30.758Z,8.23
2022-12-01T15:08:33.325Z,7.92
2022-12-01T15:10:58.250Z,8.12
2022-12-01T15:13:40.816Z,8.42
2022-12-01T15:16:20.074Z,8.22
2022-12-01T15:18:47.523Z,8.35
2022-12-01T15:21:28.070Z,8.27
2022-12-01T15:24:00.921Z,8.02
2022-12-01T15:26:46.702Z,8.06
2022-12-01T15:29:20.612Z,8.19
2022-12-01T15:31:50.566Z,8.35
2022-12-01T15:34:26.691Z,8.25
2022-12-01T15:36:54.138Z,7.95
2022-12-01T15:39:34.836Z,8.38
2022-12-01T15:42:02.961Z,8.65
2022-12-01T15:44:36.516Z,8.75
2022-12-01T15:47:35.011Z,8.99
2022-12-01T15:50:03.415Z,9.27
2022-12-01T15:52:30.194Z,9.17
2022-12-01T15:55:03.789Z,8.99
2022-12-01T15:57:30.416Z,8.93
2022-12-01T15:59:57.613Z,8.92
2022-12-01T16:02:32.179Z,8.73
2022-12-01T16:05:14.802Z,8.75
2022-12-01T16:10:36.402Z,8.14
2022-12-01T16:13:35.002Z,8.20
2022-12-01T16:16:42.661Z,8.59
2022-12-01T16:19:09.157Z,8.40
2022-12-01T16:21:45.372Z,8.72
2022-12-01T16:24:38.660Z,8.50
2022-12-01T16:27:20.245Z,8.74
2022-12-01T16:30:00.652Z,8.82
2022-12-01T16:32:40.035Z,8.90
2022-12-01T16:35:21.992Z,8.86
2022-12-01T16:37:48.650Z,8.79
2022-12-01T16:40:15.755Z,8.89
2022-12-01T16:42:42.894Z,8.75
2022-12-01T16:45:13.722Z,8.88
2022-12-01T16:47:41.531Z,8.68
2022-12-01T16:50:14.176Z,8.76
2022-12-01T16:52:44.630Z,8.52
2022-12-01T16:55:41.510Z,8.55
2022-12-01T16:58:08.005Z,8.82
2022-12-01T17:00:35.030Z,8.48
2022-12-01T17:03:02.061Z,8.53
2022-12-01T17:05:28.536Z,8.46
2022-12-01T17:07:55.270Z,8.39
2022-12-01T17:10:22.639Z,8.63
2022-12-01T17:12:49.111Z,8.68
2022-12-01T17:15:15.973Z,8.64
2022-12-01T17:17:42.739Z,8.90
2022-12-01T17:20:10.265Z,9.20
2022-12-01T17:22:36.853Z,8.93
2022-12-01T17:25:04.360Z,8.92
2022-12-01T17:27:31.508Z,8.95
2022-12-01T17:29:59.759Z,8.92
2022-12-01T17:32:27.294Z,9.05
2022-12-01T17:34:54.467Z,8.83
2022-12-01T17:37:21.603Z,9.17
2022-12-01T17:39:49.010Z,8.77
2022-12-01T17:42:16.327Z,8.81
2022-12-01T17:44:42.832Z,8.62
2022-12-01T17:47:09.283Z,7.86
2022-12-01T17:49:36.139Z,8.04
2022-12-01T17:52:03.871Z,7.94
2022-12-01T17:54:30.393Z,7.94
2022-12-01T17:56:56.914Z,8.19
2022-12-01T17:59:23.545Z,8.46
2022-12-01T18:01:50.371Z,8.62
2022-12-01T18:04:16.975Z,8.74
2022-12-01T18:06:43.453Z,8.90
2022-12-01T18:09:09.938Z,9.06
2022-12-01T18:11:36.427Z,9.14
2022-12-01T18:14:02.917Z,9.32
2022-12-01T18:16:31.905Z,9.12
2022-12-01T18:19:00.129Z,9.41
2022-12-01T18:21:28.048Z,9.41
2022-12-01T18:23:59.078Z,9.49
2022-12-01T18:26:27.878Z,9.47
2022-12-01T18:29:00.409Z,9.52
2022-12-01T18:31:28.539Z,9.44
2022-12-01T18:33:58.355Z,9.41
2022-12-01T18:36:26.063Z,9.29
2022-12-01T18:38:53.591Z,9.40
2022-12-01T18:41:20.819Z,9.54
2022-12-01T18:43:47.359Z,9.45
2022-12-01T18:46:15.770Z,9.37
2022-12-01T18:48:47.134Z,9.18
2022-12-01T18:51:14.489Z,9.20
2022-12-01T18:53:41.442Z,9.35
2022-12-01T18:56:11.703Z,9.49
2022-12-01T18:58:39.409Z,9.45
2022-12-01T19:01:23.987Z,9.43
2022-12-01T19:03:50.612Z,9.45
2022-12-01T19:06:18.043Z,9.50
2022-12-01T19:08:44.571Z,9.54
2022-12-01T19:11:11.041Z,9.45
2022-12-01T19:13:37.802Z,9.51
2022-12-01T19:16:09.867Z,9.48
2022-12-01T19:18:37.301Z,9.45
2022-12-01T19:21:06.123Z,9.05
2022-12-01T19:23:32.733Z,9.29
2022-12-01T19:26:03.456Z,9.18
2022-12-01T19:28:29.922Z,9.24
2022-12-01T19:30:56.421Z,9.08
2022-12-01T19:33:22.880Z,9.05
2022-12-01T19:35:49.370Z,9.08
2022-12-01T19:38:15.869Z,9.15
2022-12-01T19:40:42.336Z,8.80
2022-12-01T19:43:08.925Z,8.70
2022-12-01T19:45:39.074Z,9.05
2022-12-01T19:48:06.258Z,8.98
2022-12-01T19:50:36.324Z,9.22
2022-12-01T19:53:03.394Z,8.96
2022-12-01T19:55:30.028Z,9.06
2022-12-01T19:57:56.513Z,9.07
2022-12-01T20:00:23.108Z,9.29
2022-12-01T20:02:49.667Z,9.23
2022-12-01T20:05:16.193Z,9.10
2022-12-01T20:07:42.700Z,9.28
2022-12-01T20:10:10.083Z,9.32
2022-12-01T20:12:36.585Z,9.10
2022-12-01T20:15:03.292Z,9.06
2022-12-01T20:17:29.746Z,9.24
2022-12-01T20:19:56.229Z,9.35
2022-12-01T20:22:22.684Z,9.20
2022-12-01T20:24:49.419Z,9.22
2022-12-01T20:27:16.120Z,9.27
2022-12-01T20:29:42.572Z,9.41
2022-12-01T20:32:09.170Z,9.41
2022-12-01T20:34:36.177Z,9.36
2022-12-01T20:37:03.383Z,9.12
2022-12-01T20:39:30.169Z,9.18
2022-12-01T20:41:56.687Z,9.13
2022-12-01T20:44:23.275Z,8.88
2022-12-01T20:46:49.752Z,9.06
2022-12-01T20:49:17.367Z,9.13
2022-12-01T20:51:44.695Z,9.26
2022-12-01T20:54:30.033Z,8.67
2022-12-01T20:56:57.974Z,8.83
2022-12-01T20:59:24.451Z,8.59
2022-12-01T21:01:50.933Z,8.82
2022-12-01T21:04:17.449Z,8.78
2022-12-01T21:06:43.993Z,8.83
2022-12-01T21:09:10.652Z,8.88
2022-12-01T21:11:47.909Z,8.77
2022-12-01T21:14:24.240Z,8.95
2022-12-01T21:16:54.799Z,8.86
2022-12-01T21:19:30.254Z,8.95
2022-12-01T21:21:58.619Z,8.65
2022-12-01T21:24:29.915Z,8.32
2022-12-01T21:27:11.108Z,8.55
2022-12-01T21:29:40.675Z,8.67
2022-12-01T21:32:17.926Z,8.31
2022-12-01T21:34:47.271Z,8.70
2022-12-01T21:37:22.246Z,8.42
2022-12-01T21:39:50.504Z,8.54
2022-12-01T21:42:21.044Z,8.42
2022-12-01T21:44:47.993Z,8.40
2022-12-01T21:47:21.809Z,8.46
2022-12-01T21:49:52.686Z,8.34
2022-12-01T21:52:25.570Z,8.58
2022-12-01T21:54:52.704Z,8.55
2022-12-01T21:57:45.419Z,8.60
2022-12-01T22:00:34.641Z,8.55
2022-12-01T22:03:13.115Z,8.70
2022-12-01T22:05:42.890Z,8.68
2022-12-01T22:08:12.422Z,8.83
2022-12-01T22:11:09.474Z,8.59
2022-12-01T22:13:38.822Z,8.92
2022-12-01T22:16:13.005Z,9.18
2022-12-01T22:18:42.037Z,8.94
2022-12-01T22:21:30.132Z,9.20
2022-12-01T22:24:24.664Z,9.30
2022-12-01T22:27:23.735Z,9.04
2022-12-01T22:29:56.205Z,9.06
2022-12-01T22:32:31.527Z,9.10
2022-12-01T22:35:22.460Z,9.00
2022-12-01T22:37:52.197Z,8.99
2022-12-01T22:40:32.649Z,8.76
2022-12-01T22:43:14.025Z,8.94
2022-12-01T22:45:41.760Z,8.99
2022-12-01T22:48:29.698Z,8.97
2022-12-01T22:51:14.489Z,9.15
2022-12-01T22:53:43.700Z,8.99
2022-12-01T22:56:34.740Z,9.28
2022-12-01T22:59:16.386Z,9.37
2022-12-01T23:02:01.469Z,9.48
2022-12-01T23:04:38.214Z,9.46
2022-12-01T23:07:22.496Z,9.38
2022-12-01T23:09:49.005Z,9.43
2022-12-01T23:12:30.576Z,9.51
2022-12-01T23:15:16.327Z,9.51
2022-12-01T23:17:42.827Z,9.55
2022-12-01T23:20:31.624Z,9.69
2022-12-01T23:23:01.583Z,9.81
2022-12-01T23:25:29.070Z,9.76
2022-12-01T23:28:00.424Z,9.54
2022-12-01T23:30:26.966Z,9.66
2022-12-01T23:33:12.933Z,9.77
2022-12-01T23:36:02.103Z,9.78
2022-12-01T23:38:38.376Z,9.76
2022-12-01T23:41:07.531Z,9.86
2022-12-01T23:43:44.084Z,9.82
2022-12-01T23:46:20.694Z,9.77
2022-12-01T23:48:52.287Z,9.80
2022-12-01T23:51:20.307Z,9.67
2022-12-01T23:53:46.772Z,9.65
2022-12-01T23:56:20.212Z,9.75
2022-12-01T23:58:47.163Z,9.60
